Time;durP1;ratioP1;P1;durP2;ratioP2;P2;SDS_P1;SDS_P2;PMS_P1;PMS_P2;Temp;Humidity;BMP_temperature;BMP_pressure;BME280_temperature;BME280_humidity;BME280_pressure;Samples;Min_cycle;Max_cycle;Signal;HPM_P1;HPM_P2
2023/08/15 00:00:14;;;;;;;;;;;;;;;;;;5082278;28;20365;-60
2023/08/15 00:02:40;;;;;;;;;;;;;;;;;;5082640;28;19924;-60
2023/08/15 00:05:06;;;;;;;;;;;;;;;;;;5082402;28;19934;-60
2023/08/15 00:07:32;;;;;;;;;;;;;;;;;;5082016;28;20039;-60
2023/08/15 00:09:58;;;;;;;;;;;;;;;;;;5082479;28;20003;-61
2023/08/15 00:12:23;;;;;;;;;;;;;;;;;;5072573;28;20615;-61
2023/08/15 00:14:49;;;;;;;;;;;;;;;;;;5083353;28;19936;-60
2023/08/15 00:17:15;;;;;;;;;;;;;;;;;;5082448;28;20358;-60
2023/08/15 00:19:41;;;;;;;;;;;;;;;;;;5082130;28;19928;-62
2023/08/15 00:22:07;;;;;;;;;;;;;;;;;;5082598;28;19924;-63
2023/08/15 00:24:33;;;;;;;;;;;;;;;;;;5081572;28;19963;-61
2023/08/15 00:26:59;;;;;;;;;;;;;;;;;;5082710;28;19928;-61
2023/08/15 00:29:25;;;;;;;;;;;;;;;;;;5082209;28;20453;-61
2023/08/15 00:31:51;;;;;;;;;;;;;;;;;;5064747;28;19974;-61
2023/08/15 00:34:17;;;;;;;;;;;;;;;;;;5082247;28;19975;-61
2023/08/15 00:36:43;;;;;;;;;;;;;;;;;;5081851;28;20595;-61
2023/08/15 00:39:09;;;;;;;;;;;;;;;;;;5080855;28;19969;-61
2023/08/15 00:41:35;;;;;;;;;;;;;;;;;;5082517;28;19932;-61
2023/08/15 00:44:00;;;;;;;;;;;;;;;;;;5082769;28;19981;-61
2023/08/15 00:46:27;;;;;;;;;;;;;;;;;;5082603;28;19930;-61
2023/08/15 00:48:53;;;;;;;;;;;;;;;;;;5081994;28;19927;-61
2023/08/15 00:51:19;;;;;;;;;;;;;;;;;;5081665;28;19928;-61
2023/08/15 00:53:45;;;;;;;;;;;;;;;;;;5081109;28;19930;-61
2023/08/15 00:56:11;;;;;;;;;;;;;;;;;;5082834;28;20050;-61
2023/08/15 00:58:37;;;;;;;;;;;;;;;;;;5082095;28;19963;-61
2023/08/15 01:01:03;;;;;;;;;;;;;;;;;;5081712;28;19978;-61
2023/08/15 01:03:29;;;;;;;;;;;;;;;;;;5082578;28;19959;-61
2023/08/15 01:05:55;;;;;;;;;;;;;;;;;;5085848;28;19920;-61
2023/08/15 01:08:21;;;;;;;;;;;;;;;;;;5085422;28;19924;-61
2023/08/15 01:10:47;;;;;;;;;;;;;;;;;;5086005;28;19920;-61
2023/08/15 01:13:13;;;;;;;;;;;;;;;;;;5143596;22;20545;-65
2023/08/15 01:15:39;;;;;;;;;;;;;;;;;;5010647;28;19926;-65
2023/08/15 01:18:04;;;;;;;;;;;;;;;;;;5031273;28;20379;-65
2023/08/15 01:20:30;;;;;;;;;;;;;;;;;;5043358;28;19985;-65
2023/08/15 01:22:56;;;;;;;;;;;;;;;;;;5034705;28;19937;-65
2023/08/15 01:25:22;;;;;;;;;;;;;;;;;;5045736;28;19921;-65
2023/08/15 01:27:48;;;;;;;;;;;;;;;;;;5046514;28;20374;-65
2023/08/15 01:30:14;;;;;;;;;;;;;;;;;;5027528;28;19933;-65
2023/08/15 01:32:40;;;;;;;;;;;;;;;;;;5043614;28;20283;-65
2023/08/15 01:35:06;;;;;;;;;;;;;;;;;;5044495;28;19925;-66
2023/08/15 01:37:32;;;;;;;;;;;;;;;;;;5041145;28;19935;-66
2023/08/15 01:39:58;;;;;;;;;;;;;;;;;;5040889;28;19924;-66
2023/08/15 01:42:24;;;;;;;;;;;;;;;;;;5041379;28;20632;-65
2023/08/15 01:44:50;;;;;;;;;;;;;;;;;;5043944;28;19943;-66
2023/08/15 01:47:16;;;;;;;;;;;;;;;;;;5039500;28;19932;-66
2023/08/15 01:49:42;;;;;;;;;;;;;;;;;;5041590;28;19933;-65
2023/08/15 01:52:08;;;;;;;;;;;;;;;;;;5035238;28;19964;-65
2023/08/15 01:54:34;;;;;;;;;;;;;;;;;;5037756;28;19951;-65
2023/08/15 01:56:59;;;;;;;;;;;;;;;;;;5034020;28;19921;-66
2023/08/15 01:59:25;;;;;;;;;;;;;;;;;;5039283;28;19925;-66
2023/08/15 02:01:51;;;;;;;;;;;;;;;;;;5041739;28;19990;-65
2023/08/15 02:04:17;;;;;;;;;;;;;;;;;;5035064;28;19931;-65
2023/08/15 02:06:43;;;;;;;;;;;;;;;;;;5039446;28;19928;-65
2023/08/15 02:09:09;;;;;;;;;;;;;;;;;;5031919;28;19955;-65
2023/08/15 02:11:35;;;;;;;;;;;;;;;;;;5035400;28;20688;-65
2023/08/15 02:14:01;;;;;;;;;;;;;;;;;;5030211;28;19932;-65
2023/08/15 02:16:27;;;;;;;;;;;;;;;;;;5030473;28;19925;-65
2023/08/15 02:18:53;;;;;;;;;;;;;;;;;;5028040;28;19935;-65
2023/08/15 02:21:19;;;;;;;;;;;;;;;;;;5027465;28;19925;-65
2023/08/15 02:23:45;;;;;;;;;;;;;;;;;;5024646;28;20019;-65
2023/08/15 02:26:10;;;;;;;;;;;;;;;;;;5019404;28;19975;-65
2023/08/15 02:28:36;;;;;;;;;;;;;;;;;;5041107;28;20499;-65
2023/08/15 02:31:05;;;;;;;;;;;;;;;;;;5041698;28;19929;-65
2023/08/15 02:33:30;;;;;;;;;;;;;;;;;;5040018;28;19940;-65
2023/08/15 02:35:56;;;;;;;;;;;;;;;;;;5042395;28;19925;-66
2023/08/15 02:38:23;;;;;;;;;;;;;;;;;;5038480;28;19929;-65
2023/08/15 02:40:49;;;;;;;;;;;;;;;;;;5040292;28;19951;-65
2023/08/15 02:43:14;;;;;;;;;;;;;;;;;;5035999;28;20465;-65
2023/08/15 02:45:40;;;;;;;;;;;;;;;;;;5036809;28;20295;-65
2023/08/15 02:48:06;;;;;;;;;;;;;;;;;;5034367;28;19925;-65
2023/08/15 02:50:32;;;;;;;;;;;;;;;;;;5032016;28;19933;-65
2023/08/15 02:52:58;;;;;;;;;;;;;;;;;;5031388;28;19921;-65
2023/08/15 02:55:24;;;;;;;;;;;;;;;;;;5027051;28;19925;-65
2023/08/15 02:57:50;;;;;;;;;;;;;;;;;;5029448;28;20015;-65
2023/08/15 03:00:16;;;;;;;;;;;;;;;;;;5023975;28;19972;-65
2023/08/15 03:02:42;;;;;;;;;;;;;;;;;;5041016;28;19929;-65
2023/08/15 03:05:08;;;;;;;;;;;;;;;;;;5041536;28;19921;-65
2023/08/15 03:07:34;;;;;;;;;;;;;;;;;;5036401;28;19949;-65
2023/08/15 03:09:59;;;;;;;;;;;;;;;;;;5040418;28;20412;-65
2023/08/15 03:12:25;;;;;;;;;;;;;;;;;;5033178;28;19925;-65
2023/08/15 03:14:51;;;;;;;;;;;;;;;;;;5037791;28;19936;-66
2023/08/15 03:17:19;;;;;;;;;;;;;;;;;;5031582;28;19925;-65
2023/08/15 03:19:44;;;;;;;;;;;;;;;;;;5032954;28;19982;-65
2023/08/15 03:22:10;;;;;;;;;;;;;;;;;;5027883;28;19925;-65
2023/08/15 03:24:36;;;;;;;;;;;;;;;;;;5030425;28;20003;-65
2023/08/15 03:27:02;;;;;;;;;;;;;;;;;;5026329;28;20317;-65
2023/08/15 03:29:28;;;;;;;;;;;;;;;;;;5026122;28;19929;-65
2023/08/15 03:31:57;;;;;;;;;;;;;;;;;;5008145;28;20014;-65
2023/08/15 03:34:23;;;;;;;;;;;;;;;;;;5042899;28;20039;-65
2023/08/15 03:36:49;;;;;;;;;;;;;;;;;;5038858;28;20013;-65
2023/08/15 03:39:15;;;;;;;;;;;;;;;;;;5040419;28;20442;-65
2023/08/15 03:41:41;;;;;;;;;;;;;;;;;;5017421;28;19925;-65
2023/08/15 03:44:07;;;;;;;;;;;;;;;;;;5036417;28;19925;-65
2023/08/15 03:46:33;;;;;;;;;;;;;;;;;;5032643;28;19928;-65
2023/08/15 03:48:59;;;;;;;;;;;;;;;;;;5032833;28;19935;-65
2023/08/15 03:51:25;;;;;;;;;;;;;;;;;;5031050;28;20394;-65
2023/08/15 03:53:50;;;;;;;;;;;;;;;;;;5028168;28;19925;-65
2023/08/15 03:56:16;;;;;;;;;;;;;;;;;;5027652;28;20000;-65
2023/08/15 03:58:42;;;;;;;;;;;;;;;;;;5025663;28;19936;-65
2023/08/15 04:01:08;;;;;;;;;;;;;;;;;;5029038;28;19967;-65
2023/08/15 04:03:35;;;;;;;;;;;;;;;;;;5041942;28;19929;-65
2023/08/15 04:06:01;;;;;;;;;;;;;;;;;;5038892;28;19969;-65
2023/08/15 04:08:27;;;;;;;;;;;;;;;;;;5039177;28;20016;-65
2023/08/15 04:10:54;;;;;;;;;;;;;;;;;;5037972;28;19990;-66
2023/08/15 04:13:20;;;;;;;;;;;;;;;;;;5037964;28;19925;-65
2023/08/15 04:15:46;;;;;;;;;;;;;;;;;;5032025;28;20313;-65
2023/08/15 04:18:12;;;;;;;;;;;;;;;;;;5030500;28;20394;-65
2023/08/15 04:20:38;;;;;;;;;;;;;;;;;;5028486;28;19929;-65
2023/08/15 04:23:04;;;;;;;;;;;;;;;;;;5029896;28;19932;-65
2023/08/15 04:25:30;;;;;;;;;;;;;;;;;;5027353;28;19925;-66
2023/08/15 04:27:55;;;;;;;;;;;;;;;;;;5042248;28;19925;-65
2023/08/15 04:30:21;;;;;;;;;;;;;;;;;;5042637;28;19980;-65
2023/08/15 04:32:47;;;;;;;;;;;;;;;;;;5019036;28;19979;-65
2023/08/15 04:35:14;;;;;;;;;;;;;;;;;;5041453;28;19925;-65
2023/08/15 04:37:40;;;;;;;;;;;;;;;;;;5041789;28;19925;-65
2023/08/15 04:40:06;;;;;;;;;;;;;;;;;;5045749;28;19932;-65
2023/08/15 04:42:32;;;;;;;;;;;;;;;;;;5045906;28;20015;-64
2023/08/15 04:44:58;;;;;;;;;;;;;;;;;;5045855;28;20024;-65
2023/08/15 04:47:24;;;;;;;;;;;;;;;;;;5045763;28;20002;-66
2023/08/15 04:49:50;;;;;;;;;;;;;;;;;;5041680;28;20436;-66
2023/08/15 04:52:16;;;;;;;;;;;;;;;;;;5041958;28;19925;-66
2023/08/15 04:54:42;;;;;;;;;;;;;;;;;;5045391;28;19936;-66
2023/08/15 04:57:08;;;;;;;;;;;;;;;;;;5046002;28;19929;-66
2023/08/15 04:59:34;;;;;;;;;;;;;;;;;;5038667;28;20356;-66
2023/08/15 05:02:00;;;;;;;;;;;;;;;;;;5038718;28;19971;-66
2023/08/15 05:04:26;;;;;;;;;;;;;;;;;;5046274;28;20352;-66
2023/08/15 05:06:52;;;;;;;;;;;;;;;;;;5045129;28;19928;-66
2023/08/15 05:09:17;;;;;;;;;;;;;;;;;;5045194;28;19993;-66
2023/08/15 05:11:45;;;;;;;;;;;;;;;;;;5044727;28;19929;-66
2023/08/15 05:14:11;;;;;;;;;;;;;;;;;;5045259;28;19936;-66
2023/08/15 05:16:37;;;;;;;;;;;;;;;;;;5050126;28;20341;-66
2023/08/15 05:19:03;;;;;;;;;;;;;;;;;;5042180;28;20437;-65
2023/08/15 05:21:29;;;;;;;;;;;;;;;;;;5041820;28;19924;-65
2023/08/15 05:23:55;;;;;;;;;;;;;;;;;;5038989;28;19948;-65
2023/08/15 05:26:21;;;;;;;;;;;;;;;;;;5045099;28;19975;-66
2023/08/15 05:28:47;;;;;;;;;;;;;;;;;;5044341;28;20397;-66
2023/08/15 05:31:13;;;;;;;;;;;;;;;;;;5040758;28;20480;-66
2023/08/15 05:33:39;;;;;;;;;;;;;;;;;;5044826;28;19932;-66
2023/08/15 05:36:05;;;;;;;;;;;;;;;;;;5043487;28;19960;-66
2023/08/15 05:38:31;;;;;;;;;;;;;;;;;;5041351;28;20448;-66
2023/08/15 05:40:57;;;;;;;;;;;;;;;;;;5034365;28;19951;-66
2023/08/15 05:43:23;;;;;;;;;;;;;;;;;;5045580;28;19987;-66
2023/08/15 05:45:49;;;;;;;;;;;;;;;;;;5027322;28;19929;-66
2023/08/15 05:48:15;;;;;;;;;;;;;;;;;;5044630;28;19925;-66
2023/08/15 05:50:41;;;;;;;;;;;;;;;;;;5042187;28;20024;-66
2023/08/15 05:53:07;;;;;;;;;;;;;;;;;;5043025;28;19947;-66
2023/08/15 05:55:32;;;;;;;;;;;;;;;;;;5039752;28;20639;-66
2023/08/15 05:57:58;;;;;;;;;;;;;;;;;;5044001;28;19978;-66
2023/08/15 06:00:24;;;;;;;;;;;;;;;;;;5031561;28;19979;-65
2023/08/15 06:02:50;;;;;;;;;;;;;;;;;;5042775;28;19924;-66
2023/08/15 06:05:17;;;;;;;;;;;;;;;;;;5044570;28;20298;-66
2023/08/15 06:07:43;;;;;;;;;;;;;;;;;;5043530;28;19929;-66
2023/08/15 06:10:09;;;;;;;;;;;;;;;;;;5040648;28;19931;-66
2023/08/15 06:12:35;;;;;;;;;;;;;;;;;;5034332;28;19925;-66
2023/08/15 06:15:01;;;;;;;;;;;;;;;;;;5026177;28;19978;-66
2023/08/15 06:17:27;;;;;;;;;;;;;;;;;;5031459;28;20386;-66
2023/08/15 06:19:54;;;;;;;;;;;;;;;;;;5017474;28;19935;-65
2023/08/15 06:22:20;;;;;;;;;;;;;;;;;;5028693;28;19925;-66
2023/08/15 06:24:46;;;;;;;;;;;;;;;;;;5029965;28;19931;-65
2023/08/15 06:27:12;;;;;;;;;;;;;;;;;;5024079;28;19929;-65
2023/08/15 06:29:38;;;;;;;;;;;;;;;;;;5026269;28;19936;-65
2023/08/15 06:32:03;;;;;;;;;;;;;;;;;;5038874;28;20745;-65
2023/08/15 06:34:29;;;;;;;;;;;;;;;;;;5042201;28;19947;-65
2023/08/15 06:36:55;;;;;;;;;;;;;;;;;;5037685;28;20196;-65
2023/08/15 06:39:21;;;;;;;;;;;;;;;;;;5039278;28;20148;-65
2023/08/15 06:41:47;;;;;;;;;;;;;;;;;;5037686;28;20496;-65
2023/08/15 06:44:13;;;;;;;;;;;;;;;;;;5037608;28;19932;-65
2023/08/15 06:46:39;;;;;;;;;;;;;;;;;;5021309;28;19932;-65
2023/08/15 06:49:05;;;;;;;;;;;;;;;;;;5034309;28;19975;-66
2023/08/15 06:51:31;;;;;;;;;;;;;;;;;;5023988;28;19936;-66
2023/08/15 06:53:57;;;;;;;;;;;;;;;;;;5034796;28;20030;-65
2023/08/15 06:56:23;;;;;;;;;;;;;;;;;;5030322;28;19968;-65
2023/08/15 06:58:49;;;;;;;;;;;;;;;;;;5027106;28;19925;-65
2023/08/15 07:01:15;;;;;;;;;;;;;;;;;;5029239;28;19929;-65
2023/08/15 07:03:41;;;;;;;;;;;;;;;;;;5042266;28;19924;-65
2023/08/15 07:06:07;;;;;;;;;;;;;;;;;;5040076;28;19924;-65
2023/08/15 07:08:32;;;;;;;;;;;;;;;;;;5040905;28;19931;-66
2023/08/15 07:10:58;;;;;;;;;;;;;;;;;;5035838;28;19925;-65
2023/08/15 07:13:24;;;;;;;;;;;;;;;;;;5037639;28;19931;-65
2023/08/15 07:15:50;;;;;;;;;;;;;;;;;;5030655;28;19932;-66
2023/08/15 07:18:18;;;;;;;;;;;;;;;;;;5034263;28;19925;-66
2023/08/15 07:20:44;;;;;;;;;;;;;;;;;;5028525;28;20039;-65
2023/08/15 07:23:10;;;;;;;;;;;;;;;;;;5030024;28;19924;-66
2023/08/15 07:25:41;;;;;;;;;;;;;;;;;;5025574;28;20445;-66
2023/08/15 07:28:07;;;;;;;;;;;;;;;;;;5025689;28;20487;-65
2023/08/15 07:30:33;;;;;;;;;;;;;;;;;;5024090;28;19925;-66
2023/08/15 07:32:59;;;;;;;;;;;;;;;;;;5038617;28;19944;-65
2023/08/15 07:35:25;;;;;;;;;;;;;;;;;;5040253;28;19925;-66
2023/08/15 07:37:51;;;;;;;;;;;;;;;;;;5040950;28;19921;-65
2023/08/15 07:40:17;;;;;;;;;;;;;;;;;;5017916;28;19925;-66
2023/08/15 07:42:43;;;;;;;;;;;;;;;;;;5038507;28;20438;-65
2023/08/15 07:45:09;;;;;;;;;;;;;;;;;;5032345;28;20014;-66
2023/08/15 07:47:38;;;;;;;;;;;;;;;;;;5036413;28;19990;-65
2023/08/15 07:50:04;;;;;;;;;;;;;;;;;;5028964;28;19929;-65
2023/08/15 07:52:30;;;;;;;;;;;;;;;;;;5030768;28;19971;-65
2023/08/15 07:54:56;;;;;;;;;;;;;;;;;;5026327;28;19978;-65
2023/08/15 07:57:24;;;;;;;;;;;;;;;;;;5028456;28;19991;-66
2023/08/15 07:59:50;;;;;;;;;;;;;;;;;;5023649;28;19971;-65
2023/08/15 08:02:15;;;;;;;;;;;;;;;;;;5036198;28;19936;-66
2023/08/15 08:04:43;;;;;;;;;;;;;;;;;;5040348;28;19929;-65
2023/08/15 08:07:08;;;;;;;;;;;;;;;;;;5037749;28;19935;-66
2023/08/15 08:09:34;;;;;;;;;;;;;;;;;;5037259;28;19940;-66
2023/08/15 08:12:00;;;;;;;;;;;;;;;;;;5035364;28;20008;-65
2023/08/15 08:14:26;;;;;;;;;;;;;;;;;;5038075;28;19925;-66
2023/08/15 08:16:52;;;;;;;;;;;;;;;;;;5036386;28;19937;-66
2023/08/15 08:19:18;;;;;;;;;;;;;;;;;;5033504;28;19970;-66
2023/08/15 08:21:44;;;;;;;;;;;;;;;;;;5034421;28;19929;-66
2023/08/15 08:24:10;;;;;;;;;;;;;;;;;;5030236;28;19979;-65
2023/08/15 08:26:36;;;;;;;;;;;;;;;;;;5031564;28;19925;-65
2023/08/15 08:29:02;;;;;;;;;;;;;;;;;;5028036;28;19929;-65
2023/08/15 08:31:28;;;;;;;;;;;;;;;;;;5027829;28;20002;-66
2023/08/15 08:33:54;;;;;;;;;;;;;;;;;;5026712;28;19925;-65
2023/08/15 08:36:20;;;;;;;;;;;;;;;;;;5044645;28;20007;-66
2023/08/15 08:38:46;;;;;;;;;;;;;;;;;;5041251;28;19960;-66
2023/08/15 08:41:12;;;;;;;;;;;;;;;;;;5042088;28;20676;-66
2023/08/15 08:43:38;;;;;;;;;;;;;;;;;;5036272;28;19926;-65
2023/08/15 08:46:04;;;;;;;;;;;;;;;;;;5040842;28;19966;-65
2023/08/15 08:48:30;;;;;;;;;;;;;;;;;;5032879;28;19925;-66
2023/08/15 08:50:56;;;;;;;;;;;;;;;;;;5036306;28;20309;-66
2023/08/15 08:53:21;;;;;;;;;;;;;;;;;;5030981;28;19932;-66
2023/08/15 08:55:48;;;;;;;;;;;;;;;;;;5032553;28;19925;-65
2023/08/15 08:58:13;;;;;;;;;;;;;;;;;;5028073;28;19921;-65
2023/08/15 09:00:39;;;;;;;;;;;;;;;;;;5028263;28;19925;-66
2023/08/15 09:03:05;;;;;;;;;;;;;;;;;;5044712;28;19978;-66
2023/08/15 09:05:32;;;;;;;;;;;;;;;;;;5040851;28;20023;-66
2023/08/15 09:07:58;;;;;;;;;;;;;;;;;;5041422;28;19932;-66
2023/08/15 09:10:24;;;;;;;;;;;;;;;;;;5039865;28;19925;-65
2023/08/15 09:12:50;;;;;;;;;;;;;;;;;;5037998;28;20017;-66
2023/08/15 09:15:15;;;;;;;;;;;;;;;;;;5036999;28;19932;-65
2023/08/15 09:17:41;;;;;;;;;;;;;;;;;;5033378;28;19929;-66
2023/08/15 09:20:08;;;;;;;;;;;;;;;;;;5034118;28;19933;-66
2023/08/15 09:22:34;;;;;;;;;;;;;;;;;;5028777;28;20018;-65
2023/08/15 09:25:00;;;;;;;;;;;;;;;;;;5031038;28;19991;-65
2023/08/15 09:27:26;;;;;;;;;;;;;;;;;;5027525;28;20059;-65
2023/08/15 09:29:52;;;;;;;;;;;;;;;;;;5026599;28;20040;-65
2023/08/15 09:32:18;;;;;;;;;;;;;;;;;;5035297;28;20097;-65
2023/08/15 09:34:44;;;;;;;;;;;;;;;;;;5045291;28;20496;-65
2023/08/15 09:37:10;;;;;;;;;;;;;;;;;;5041745;28;20463;-66
2023/08/15 09:39:36;;;;;;;;;;;;;;;;;;5042813;28;19970;-66
2023/08/15 09:42:02;;;;;;;;;;;;;;;;;;5037757;28;20019;-65
2023/08/15 09:44:28;;;;;;;;;;;;;;;;;;5040831;28;19925;-66
2023/08/15 09:46:54;;;;;;;;;;;;;;;;;;5033714;28;20071;-66
2023/08/15 09:49:20;;;;;;;;;;;;;;;;;;5038124;28;20455;-65
2023/08/15 09:51:46;;;;;;;;;;;;;;;;;;5030101;28;19929;-65
2023/08/15 09:54:12;;;;;;;;;;;;;;;;;;5033850;28;19932;-65
2023/08/15 09:56:37;;;;;;;;;;;;;;;;;;5029200;28;19925;-64
2023/08/15 09:59:03;;;;;;;;;;;;;;;;;;5030092;28;19931;-65
2023/08/15 10:01:30;;;;;;;;;;;;;;;;;;5034361;28;20408;-66
2023/08/15 10:03:55;;;;;;;;;;;;;;;;;;5042196;28;19924;-65
2023/08/15 10:06:21;;;;;;;;;;;;;;;;;;5041834;28;19928;-65
2023/08/15 10:08:47;;;;;;;;;;;;;;;;;;5039112;28;19931;-66
2023/08/15 10:11:13;;;;;;;;;;;;;;;;;;5038785;28;19943;-66
2023/08/15 10:13:39;;;;;;;;;;;;;;;;;;5037317;28;19924;-66
2023/08/15 10:16:05;;;;;;;;;;;;;;;;;;5034870;28;19930;-65
2023/08/15 10:18:31;;;;;;;;;;;;;;;;;;5034571;28;20279;-65
2023/08/15 10:20:57;;;;;;;;;;;;;;;;;;5028869;28;20430;-66
2023/08/15 10:23:23;;;;;;;;;;;;;;;;;;5032530;28;19983;-66
2023/08/15 10:25:49;;;;;;;;;;;;;;;;;;5027210;28;20016;-65
2023/08/15 10:28:15;;;;;;;;;;;;;;;;;;5028149;28;19931;-65
2023/08/15 10:30:41;;;;;;;;;;;;;;;;;;5025135;28;19939;-65
2023/08/15 10:33:07;;;;;;;;;;;;;;;;;;5036085;28;19932;-66
2023/08/15 10:35:34;;;;;;;;;;;;;;;;;;5041924;28;19929;-66
2023/08/15 10:38:00;;;;;;;;;;;;;;;;;;5041264;28;19924;-65
2023/08/15 10:40:26;;;;;;;;;;;;;;;;;;5037500;28;19963;-66
2023/08/15 10:42:51;;;;;;;;;;;;;;;;;;5039913;28;19975;-66
2023/08/15 10:45:17;;;;;;;;;;;;;;;;;;5037230;28;20061;-65
2023/08/15 10:47:43;;;;;;;;;;;;;;;;;;5043284;28;19935;-66
2023/08/15 10:50:09;;;;;;;;;;;;;;;;;;5036545;28;19925;-65
2023/08/15 10:52:35;;;;;;;;;;;;;;;;;;5041467;28;19928;-65
2023/08/15 10:55:01;;;;;;;;;;;;;;;;;;5042180;28;19932;-65
2023/08/15 10:57:27;;;;;;;;;;;;;;;;;;5040324;28;19925;-66
2023/08/15 10:59:53;;;;;;;;;;;;;;;;;;5039043;28;19925;-66
2023/08/15 11:02:19;;;;;;;;;;;;;;;;;;5031971;28;20287;-66
2023/08/15 11:04:45;;;;;;;;;;;;;;;;;;5040503;28;19932;-66
2023/08/15 11:07:11;;;;;;;;;;;;;;;;;;5016485;28;19925;-66
2023/08/15 11:09:37;;;;;;;;;;;;;;;;;;5032116;28;20355;-66
2023/08/15 11:12:03;;;;;;;;;;;;;;;;;;5038970;28;19928;-66
2023/08/15 11:14:29;;;;;;;;;;;;;;;;;;5038313;28;19925;-66
2023/08/15 11:16:54;;;;;;;;;;;;;;;;;;5026844;28;19955;-66
2023/08/15 11:19:21;;;;;;;;;;;;;;;;;;5029344;28;19922;-66
2023/08/15 11:21:46;;;;;;;;;;;;;;;;;;5041449;28;20390;-66
2023/08/15 11:24:12;;;;;;;;;;;;;;;;;;5038442;28;19981;-65
2023/08/15 11:26:38;;;;;;;;;;;;;;;;;;5042131;28;19925;-66
2023/08/15 11:29:04;;;;;;;;;;;;;;;;;;5034318;28;19935;-65
2023/08/15 11:31:30;;;;;;;;;;;;;;;;;;5038300;28;19947;-65
2023/08/15 11:33:56;;;;;;;;;;;;;;;;;;5040009;28;20019;-66
2023/08/15 11:36:22;;;;;;;;;;;;;;;;;;5038819;28;19990;-66
2023/08/15 11:38:48;;;;;;;;;;;;;;;;;;5035886;28;19948;-62
2023/08/15 11:41:14;;;;;;;;;;;;;;;;;;5037342;28;19989;-62
2023/08/15 11:43:40;;;;;;;;;;;;;;;;;;5032102;28;19933;-62
2023/08/15 11:46:06;;;;;;;;;;;;;;;;;;5035732;28;19947;-62
2023/08/15 11:48:32;;;;;;;;;;;;;;;;;;5027902;28;20303;-62
2023/08/15 11:50:58;;;;;;;;;;;;;;;;;;5033328;28;19932;-62
2023/08/15 11:53:24;;;;;;;;;;;;;;;;;;5026632;28;19929;-62
2023/08/15 11:55:50;;;;;;;;;;;;;;;;;;5029204;28;19925;-62
2023/08/15 11:58:16;;;;;;;;;;;;;;;;;;5025149;28;20310;-62
2023/08/15 12:00:42;;;;;;;;;;;;;;;;;;5025021;28;19925;-62
2023/08/15 12:03:08;;;;;;;;;;;;;;;;;;5042623;28;20000;-62
2023/08/15 12:05:34;;;;;;;;;;;;;;;;;;5038161;28;19928;-62
2023/08/15 12:07:59;;;;;;;;;;;;;;;;;;5039556;28;19927;-63
2023/08/15 12:10:25;;;;;;;;;;;;;;;;;;5037357;28;19924;-62
2023/08/15 12:12:51;;;;;;;;;;;;;;;;;;5034738;28;19925;-62
2023/08/15 12:15:17;;;;;;;;;;;;;;;;;;5035156;28;20382;-62
2023/08/15 12:17:43;;;;;;;;;;;;;;;;;;5031099;28;19925;-62
2023/08/15 12:20:11;;;;;;;;;;;;;;;;;;5031826;28;19971;-62
2023/08/15 12:22:39;;;;;;;;;;;;;;;;;;5026686;28;19925;-62
2023/08/15 12:25:05;;;;;;;;;;;;;;;;;;5028560;28;19929;-62
2023/08/15 12:27:31;;;;;;;;;;;;;;;;;;5035407;28;19952;-62
2023/08/15 12:29:56;;;;;;;;;;;;;;;;;;5026130;28;19925;-63
2023/08/15 12:32:22;;;;;;;;;;;;;;;;;;5033203;28;19924;-62
2023/08/15 12:34:48;;;;;;;;;;;;;;;;;;5041774;28;20380;-62
2023/08/15 12:37:14;;;;;;;;;;;;;;;;;;5037937;28;19928;-62
2023/08/15 12:39:40;;;;;;;;;;;;;;;;;;5039975;28;19932;-62
2023/08/15 12:42:07;;;;;;;;;;;;;;;;;;5034464;28;19925;-62
2023/08/15 12:44:33;;;;;;;;;;;;;;;;;;5037231;28;19926;-63
2023/08/15 12:46:58;;;;;;;;;;;;;;;;;;5031186;28;19932;-62
2023/08/15 12:49:24;;;;;;;;;;;;;;;;;;5034647;28;19936;-62
2023/08/15 12:51:50;;;;;;;;;;;;;;;;;;5028137;28;19925;-62
2023/08/15 12:54:17;;;;;;;;;;;;;;;;;;5032314;28;20305;-62
2023/08/15 12:56:42;;;;;;;;;;;;;;;;;;5026253;28;19936;-62
2023/08/15 12:59:08;;;;;;;;;;;;;;;;;;5026552;28;20349;-62
2023/08/15 13:01:34;;;;;;;;;;;;;;;;;;5033983;28;20405;-62
2023/08/15 13:04:01;;;;;;;;;;;;;;;;;;5043499;28;19931;-62
2023/08/15 13:06:27;;;;;;;;;;;;;;;;;;5042632;28;19970;-63
2023/08/15 13:08:53;;;;;;;;;;;;;;;;;;5039929;28;19931;-62
2023/08/15 13:11:18;;;;;;;;;;;;;;;;;;5040316;28;19925;-62
2023/08/15 13:13:44;;;;;;;;;;;;;;;;;;5036810;28;19944;-62
2023/08/15 13:16:11;;;;;;;;;;;;;;;;;;5036164;28;19925;-62
2023/08/15 13:18:37;;;;;;;;;;;;;;;;;;5037677;28;19979;-62
2023/08/15 13:21:03;;;;;;;;;;;;;;;;;;5036141;28;19925;-63
2023/08/15 13:23:29;;;;;;;;;;;;;;;;;;5032271;28;19995;-63
2023/08/15 13:25:55;;;;;;;;;;;;;;;;;;5027828;28;19929;-62
2023/08/15 13:28:21;;;;;;;;;;;;;;;;;;5029802;28;19921;-62
2023/08/15 13:30:47;;;;;;;;;;;;;;;;;;5026699;28;19936;-62
2023/08/15 13:33:13;;;;;;;;;;;;;;;;;;5038506;28;19924;-62
2023/08/15 13:35:39;;;;;;;;;;;;;;;;;;5042568;28;19970;-62
2023/08/15 13:38:05;;;;;;;;;;;;;;;;;;5041607;28;20340;-62
2023/08/15 13:40:31;;;;;;;;;;;;;;;;;;5038606;28;19924;-63
2023/08/15 13:42:58;;;;;;;;;;;;;;;;;;5040374;28;19925;-63
2023/08/15 13:45:24;;;;;;;;;;;;;;;;;;5036229;28;20298;-62
2023/08/15 13:47:50;;;;;;;;;;;;;;;;;;5038089;28;19931;-62
2023/08/15 13:50:16;;;;;;;;;;;;;;;;;;5029734;28;19933;-62
2023/08/15 13:52:42;;;;;;;;;;;;;;;;;;5029621;28;20023;-62
2023/08/15 13:55:08;;;;;;;;;;;;;;;;;;5028453;28;20023;-62
2023/08/15 13:57:34;;;;;;;;;;;;;;;;;;5029712;28;19925;-63
2023/08/15 14:00:00;;;;;;;;;;;;;;;;;;5025723;28;19968;-62
2023/08/15 14:02:26;;;;;;;;;;;;;;;;;;5040030;28;19976;-63
2023/08/15 14:04:53;;;;;;;;;;;;;;;;;;5043411;28;19935;-62
2023/08/15 14:07:19;;;;;;;;;;;;;;;;;;5038609;28;19948;-62
2023/08/15 14:09:45;;;;;;;;;;;;;;;;;;5040274;28;19924;-62
2023/08/15 14:12:11;;;;;;;;;;;;;;;;;;5035988;28;19932;-62
2023/08/15 14:14:38;;;;;;;;;;;;;;;;;;5036039;28;19925;-63
2023/08/15 14:17:04;;;;;;;;;;;;;;;;;;5033270;28;19929;-63
2023/08/15 14:19:30;;;;;;;;;;;;;;;;;;5033400;28;19979;-63
2023/08/15 14:21:56;;;;;;;;;;;;;;;;;;5030060;28;19929;-63
2023/08/15 14:24:22;;;;;;;;;;;;;;;;;;5028559;28;19952;-62
2023/08/15 14:26:48;;;;;;;;;;;;;;;;;;5028183;28;19925;-63
2023/08/15 14:29:14;;;;;;;;;;;;;;;;;;5025829;28;19921;-62
2023/08/15 14:31:40;;;;;;;;;;;;;;;;;;5029309;28;20337;-62
2023/08/15 14:34:05;;;;;;;;;;;;;;;;;;5043412;28;19947;-63
2023/08/15 14:36:31;;;;;;;;;;;;;;;;;;5041070;28;19929;-63
2023/08/15 14:38:57;;;;;;;;;;;;;;;;;;5039533;28;19925;-63
2023/08/15 14:41:23;;;;;;;;;;;;;;;;;;5039068;28;19924;-62
2023/08/15 14:43:49;;;;;;;;;;;;;;;;;;5035803;28;19932;-62
2023/08/15 14:46:15;;;;;;;;;;;;;;;;;;5036523;28;20351;-62
2023/08/15 14:48:41;;;;;;;;;;;;;;;;;;5031100;28;19979;-62
2023/08/15 14:51:07;;;;;;;;;;;;;;;;;;5033778;28;19925;-62
2023/08/15 14:53:33;;;;;;;;;;;;;;;;;;5028117;28;19928;-62
2023/08/15 14:55:59;;;;;;;;;;;;;;;;;;5029513;28;19925;-63
2023/08/15 14:58:25;;;;;;;;;;;;;;;;;;5026422;28;20430;-62
2023/08/15 15:00:51;;;;;;;;;;;;;;;;;;5009777;28;19928;-62
2023/08/15 15:03:17;;;;;;;;;;;;;;;;;;5042058;28;20722;-62
2023/08/15 15:05:43;;;;;;;;;;;;;;;;;;5038206;28;20574;-62
2023/08/15 15:08:08;;;;;;;;;;;;;;;;;;5040333;28;19935;-62
2023/08/15 15:10:35;;;;;;;;;;;;;;;;;;5035834;28;19933;-62
2023/08/15 15:13:01;;;;;;;;;;;;;;;;;;5019560;28;19925;-62
2023/08/15 15:15:27;;;;;;;;;;;;;;;;;;5034168;28;20338;-63
2023/08/15 15:17:52;;;;;;;;;;;;;;;;;;5032642;28;20366;-62
2023/08/15 15:20:18;;;;;;;;;;;;;;;;;;5030514;28;19979;-62
2023/08/15 15:22:44;;;;;;;;;;;;;;;;;;5028902;28;19928;-63
2023/08/15 15:25:10;;;;;;;;;;;;;;;;;;5029233;28;19925;-62
2023/08/15 15:27:36;;;;;;;;;;;;;;;;;;5026140;28;20011;-61
2023/08/15 15:30:02;;;;;;;;;;;;;;;;;;5036199;28;19928;-66
2023/08/15 15:32:28;;;;;;;;;;;;;;;;;;5037052;28;19940;-66
2023/08/15 15:34:54;;;;;;;;;;;;;;;;;;5040910;28;19925;-66
2023/08/15 15:37:20;;;;;;;;;;;;;;;;;;5034886;28;19929;-66
2023/08/15 15:39:46;;;;;;;;;;;;;;;;;;5036599;28;19960;-65
2023/08/15 15:42:14;;;;;;;;;;;;;;;;;;5034958;28;20322;-66
2023/08/15 15:44:40;;;;;;;;;;;;;;;;;;5044661;28;20306;-66
2023/08/15 15:47:06;;;;;;;;;;;;;;;;;;5028056;28;19929;-66
2023/08/15 15:49:32;;;;;;;;;;;;;;;;;;5040653;28;19928;-66
2023/08/15 15:51:58;;;;;;;;;;;;;;;;;;5039778;28;20502;-66
2023/08/15 15:54:24;;;;;;;;;;;;;;;;;;5033359;28;20016;-66
2023/08/15 15:56:50;;;;;;;;;;;;;;;;;;5032848;28;20023;-66
2023/08/15 15:59:16;;;;;;;;;;;;;;;;;;5035136;28;19935;-66
2023/08/15 16:01:42;;;;;;;;;;;;;;;;;;5029687;28;19929;-66
2023/08/15 16:04:08;;;;;;;;;;;;;;;;;;5031497;28;19933;-66
2023/08/15 16:06:34;;;;;;;;;;;;;;;;;;5032765;28;19924;-66
2023/08/15 16:09:00;;;;;;;;;;;;;;;;;;5033297;28;19925;-66
2023/08/15 16:11:26;;;;;;;;;;;;;;;;;;5013589;28;20396;-66
2023/08/15 16:13:52;;;;;;;;;;;;;;;;;;5036431;28;19929;-67
2023/08/15 16:16:18;;;;;;;;;;;;;;;;;;5040183;28;19928;-66
2023/08/15 16:18:44;;;;;;;;;;;;;;;;;;5039953;28;19929;-67
2023/08/15 16:21:09;;;;;;;;;;;;;;;;;;5038899;28;19929;-65
2023/08/15 16:23:35;;;;;;;;;;;;;;;;;;5031703;28;19929;-64
2023/08/15 16:26:01;;;;;;;;;;;;;;;;;;5031122;28;20047;-64
2023/08/15 16:28:27;;;;;;;;;;;;;;;;;;5019746;28;20672;-64
2023/08/15 16:30:53;;;;;;;;;;;;;;;;;;5023288;28;19921;-64
2023/08/15 16:33:19;;;;;;;;;;;;;;;;;;5035533;28;20072;-64
2023/08/15 16:35:45;;;;;;;;;;;;;;;;;;5042282;28;19931;-64